Time;durP1;ratioP1;P1;durP2;ratioP2;P2;SDS_P1;SDS_P2;PMS_P1;PMS_P2;Temp;Humidity;BMP_temperature;BMP_pressure;BME280_temperature;BME280_humidity;BME280_pressure;Samples;Min_cycle;Max_cycle;Signal;HPM_P1;HPM_P2
2022/09/07 00:00:20;;;;;;;11.95;4.85;;;;;;;14.56;69.67;99827.00;5092950;28;20439;-78
2022/09/07 00:02:46;;;;;;;16.92;4.95;;;;;;;14.49;69.84;99829.16;5092817;28;20028;-78
2022/09/07 00:05:11;;;;;;;8.77;4.60;;;;;;;14.48;70.17;99843.16;5092858;28;20146;-78
2022/09/07 00:07:37;;;;;;;9.23;4.82;;;;;;;14.43;70.62;99846.06;5092871;28;20480;-78
2022/09/07 00:10:02;;;;;;;6.38;4.20;;;;;;;14.32;70.67;99827.50;5092832;28;20111;-78
2022/09/07 00:12:28;;;;;;;7.55;4.53;;;;;;;14.37;71.11;99837.75;5092531;28;20489;-78
2022/09/07 00:14:53;;;;;;;7.15;4.20;;;;;;;14.30;71.25;99833.78;5092629;28;20020;-78
2022/09/07 00:17:19;;;;;;;10.63;5.47;;;;;;;14.33;71.15;99842.31;5092788;28;20020;-78
2022/09/07 00:19:44;;;;;;;8.80;4.88;;;;;;;14.30;71.25;99836.41;5092352;28;20020;-78
2022/09/07 00:22:09;;;;;;;8.57;5.15;;;;;;;14.32;71.17;99839.75;5092501;28;20023;-78
2022/09/07 00:24:35;;;;;;;13.02;4.90;;;;;;;14.26;70.97;99829.66;5092342;28;20020;-78
2022/09/07 00:27:00;;;;;;;8.25;4.65;;;;;;;14.22;71.55;99837.69;5092346;28;20361;-78
2022/09/07 00:29:26;;;;;;;6.22;4.45;;;;;;;14.26;71.66;99843.59;5092641;28;20133;-77
2022/09/07 00:31:51;;;;;;;8.80;4.72;;;;;;;14.20;71.80;99834.34;5092343;28;20020;-78
2022/09/07 00:34:17;;;;;;;7.43;4.88;;;;;;;14.13;72.04;99834.78;5092471;28;20020;-78
2022/09/07 00:36:42;;;;;;;6.72;4.63;;;;;;;14.10;72.03;99829.72;5091789;28;20461;-78
2022/09/07 00:39:08;;;;;;;12.25;5.70;;;;;;;14.13;72.16;99837.41;5092201;28;20453;-77
2022/09/07 00:41:33;;;;;;;10.10;5.25;;;;;;;14.15;72.03;99828.50;5092019;28;20020;-78
2022/09/07 00:44:37;;;;;;;7.65;4.90;;;;;;;14.15;71.86;99833.72;5092135;28;20019;-78
2022/09/07 00:47:08;;;;;;;8.32;4.68;;;;;;;14.12;72.13;99833.09;5092341;28;20099;-77
2022/09/07 00:49:34;;;;;;;;;;;;;;;14.13;72.19;99832.16;5091033;28;20469;-78
2022/09/07 00:52:03;;;;;;;10.73;5.20;;;;;;;14.08;71.80;99821.94;5092067;28;19999;-78
2022/09/07 00:54:40;;;;;;;8.00;4.65;;;;;;;14.08;71.89;99814.09;5092024;28;20016;-78
2022/09/07 00:57:06;;;;;;;10.50;5.00;;;;;;;14.16;71.84;99831.97;5092130;28;20024;-78
2022/09/07 00:59:38;;;;;;;7.47;4.38;;;;;;;14.13;71.77;99827.75;5091801;28;20458;-78
2022/09/07 01:02:04;;;;;;;6.90;4.60;;;;;;;14.08;71.78;99824.56;5092001;28;20346;-77
2022/09/07 01:04:31;;;;;;;9.57;5.22;;;;;;;14.12;71.85;99826.06;5091745;28;20040;-77
2022/09/07 01:06:56;;;;;;;11.63;5.15;;;;;;;14.04;71.91;99815.19;5091901;28;20361;-78
2022/09/07 01:09:24;;;;;;;7.93;4.68;;;;;;;14.03;71.88;99820.50;5092072;28;20035;-78
2022/09/07 01:11:52;;;;;;;6.75;4.78;;;;;;;14.01;72.00;99823.22;5092042;28;20053;-78
2022/09/07 01:14:21;;;;;;;9.35;4.95;;;;;;;13.95;71.87;99815.75;5091963;28;20035;-78
2022/09/07 01:17:11;;;;;;;9.63;4.43;;;;;;;13.94;72.07;99814.03;5091579;28;20024;-78
2022/09/07 01:20:00;;;;;;;10.75;5.10;;;;;;;13.90;72.17;99823.00;5091751;28;20051;-78
2022/09/07 01:22:35;;;;;;;8.32;4.45;;;;;;;13.86;72.36;99822.34;5091972;28;20103;-78
2022/09/07 01:25:06;;;;;;;6.70;4.40;;;;;;;13.82;72.11;99831.31;5091804;28;20024;-77
2022/09/07 01:27:37;;;;;;;8.77;4.90;;;;;;;13.79;72.30;99815.78;5091577;28;20048;-78
2022/09/07 01:30:03;;;;;;;6.90;4.57;;;;;;;13.76;72.78;99815.09;5091969;28;20030;-78
2022/09/07 01:32:42;;;;;;;8.48;4.60;;;;;;;13.71;72.88;99817.97;5091928;28;20052;-78
2022/09/07 01:35:20;;;;;;;6.40;5.10;;;;;;;13.69;72.74;99806.75;5091745;28;20108;-78
2022/09/07 01:38:24;;;;;;;8.48;5.38;;;;;;;13.67;72.83;99809.44;5091475;28;20016;-78
2022/09/07 01:41:07;;;;;;;8.02;4.45;;;;;;;13.65;72.93;99813.06;5028840;28;20518;-77
2022/09/07 01:43:41;;;;;;;8.68;5.00;;;;;;;13.66;73.00;99820.03;5028899;28;20025;-77
2022/09/07 01:46:17;;;;;;;10.13;5.07;;;;;;;13.61;72.55;99807.19;5029022;28;20038;-78
2022/09/07 01:48:47;;;;;;;8.65;4.30;;;;;;;13.69;72.32;99811.97;5031437;28;20037;-78
2022/09/07 01:51:16;;;;;;;6.70;4.80;;;;;;;13.64;72.35;99801.78;5032754;28;20052;-77
2022/09/07 01:53:49;;;;;;;7.20;4.38;;;;;;;13.70;72.03;99804.06;5032472;28;20370;-77
2022/09/07 01:56:30;;;;;;;8.18;4.88;;;;;;;13.66;72.02;99802.53;5032584;28;20108;-78
2022/09/07 01:59:01;;;;;;;7.68;4.57;;;;;;;13.64;72.47;99795.69;5032313;28;20081;-78
2022/09/07 02:01:31;;;;;;;9.63;4.85;;;;;;;13.71;72.12;99797.03;5032599;28;20100;-78
2022/09/07 02:04:11;;;;;;;6.45;5.03;;;;;;;13.67;72.08;99796.38;5032087;28;20033;-78
2022/09/07 02:06:43;;;;;;;8.37;4.50;;;;;;;13.65;72.18;99793.00;5032302;28;20025;-78
2022/09/07 02:09:21;;;;;;;8.23;4.55;;;;;;;13.61;72.17;99796.72;5032373;28;20021;-77
2022/09/07 02:11:49;;;;;;;7.30;4.53;;;;;;;13.56;72.31;99798.75;5032243;28;20103;-78
2022/09/07 02:14:16;;;;;;;6.90;4.45;;;;;;;13.55;72.46;99796.22;5032421;28;20021;-78
2022/09/07 02:17:03;;;;;;;7.28;4.40;;;;;;;13.42;72.53;99788.22;5050167;28;20487;-78
2022/09/07 02:19:34;;;;;;;7.20;4.88;;;;;;;13.38;72.58;99789.31;5094681;28;20030;-77
2022/09/07 02:22:05;;;;;;;8.23;4.18;;;;;;;13.40;72.99;99803.16;5094893;28;20016;-77
2022/09/07 02:24:39;;;;;;;8.93;5.40;;;;;;;13.40;72.75;99790.94;5094853;28;20030;-77
2022/09/07 02:27:12;;;;;;;7.50;5.03;;;;;;;13.34;72.37;99782.56;5094818;28;20365;-77
2022/09/07 02:29:38;;;;;;;8.18;4.85;;;;;;;13.36;72.26;99785.97;5094455;28;20024;-78
2022/09/07 02:32:04;;;;;;;8.27;4.32;;;;;;;13.23;72.20;99775.31;5094617;28;20077;-77
2022/09/07 02:34:31;;;;;;;8.30;4.50;;;;;;;13.29;72.34;99785.44;5094489;28;20101;-77
2022/09/07 02:37:00;;;;;;;7.80;4.57;;;;;;;13.25;72.58;99778.69;5094711;28;20119;-77
2022/09/07 02:39:25;;;;;;;9.73;4.55;;;;;;;13.27;72.66;99778.59;5094662;28;20030;-77
2022/09/07 02:41:51;;;;;;;9.68;4.78;;;;;;;13.19;72.57;99777.25;5094694;28;20427;-77
2022/09/07 02:44:21;;;;;;;8.73;4.75;;;;;;;13.16;72.74;99774.78;5094506;28;20506;-77
2022/09/07 02:46:52;;;;;;;8.13;4.70;;;;;;;13.13;72.57;99788.03;5094000;28;20039;-77
2022/09/07 02:49:40;;;;;;;9.13;4.43;;;;;;;13.12;73.06;99788.97;5094453;28;20031;-78
2022/09/07 02:52:30;;;;;;;7.72;4.40;;;;;;;13.09;73.35;99785.66;5031646;28;20038;-77
2022/09/07 02:55:03;;;;;;;8.80;5.07;;;;;;;13.01;73.14;99775.63;5031468;28;20594;-77
2022/09/07 02:58:04;;;;;;;8.82;4.68;;;;;;;13.01;73.23;99777.38;5031405;28;20421;-77
2022/09/07 03:00:36;;;;;;;6.78;4.68;;;;;;;12.92;73.41;99779.56;5031462;28;20026;-78
2022/09/07 03:03:21;;;;;;;10.45;4.38;;;;;;;12.87;73.40;99775.53;5031153;28;20034;-77
2022/09/07 03:05:52;;;;;;;7.28;4.50;;;;;;;12.82;73.44;99773.16;5031086;28;20383;-77
2022/09/07 03:08:23;;;;;;;10.43;4.55;;;;;;;12.83;73.22;99782.69;5031445;28;20029;-77
2022/09/07 03:10:50;;;;;;;8.43;4.28;;;;;;;12.79;73.22;99789.00;5031024;28;20149;-77
2022/09/07 03:13:27;;;;;;;8.93;4.07;;;;;;;12.76;73.20;99783.94;5031264;28;20520;-77
2022/09/07 03:15:53;;;;;;;9.07;4.55;;;;;;;12.68;73.23;99767.81;5030836;28;20042;-77
2022/09/07 03:18:18;;;;;;;4.97;3.97;;;;;;;12.73;72.86;99776.28;5031153;28;20064;-77
2022/09/07 03:20:44;;;;;;;6.45;4.18;;;;;;;12.68;73.22;99779.16;5030839;28;20076;-77
2022/09/07 03:23:09;;;;;;;7.80;3.85;;;;;;;12.68;73.15;99778.28;5031055;28;20109;-77
2022/09/07 03:25:35;;;;;;;5.88;3.72;;;;;;;12.64;73.08;99776.75;5031015;28;20091;-77
2022/09/07 03:28:00;;;;;;;5.43;3.55;;;;;;;12.61;73.09;99767.31;5033287;28;20401;-78
2022/09/07 03:30:26;;;;;;;9.10;4.30;;;;;;;12.65;72.69;99781.06;5093408;28;20089;-78
2022/09/07 03:32:51;;;;;;;11.32;4.30;;;;;;;12.58;72.73;99764.03;5093427;28;20027;-77
2022/09/07 03:35:17;;;;;;;9.98;4.20;;;;;;;12.57;72.59;99768.41;5093617;28;20042;-77
2022/09/07 03:37:42;;;;;;;6.60;3.97;;;;;;;12.62;72.45;99778.59;5093232;28;20016;-77
2022/09/07 03:40:10;;;;;;;8.30;3.90;;;;;;;12.61;72.26;99766.47;5093378;28;20020;-78
2022/09/07 03:42:36;;;;;;;9.95;4.22;;;;;;;12.54;72.40;99754.66;5093071;28;20077;-77
2022/09/07 03:45:02;;;;;;;5.35;3.92;;;;;;;12.55;72.14;99764.16;5092962;28;20024;-77
2022/09/07 03:47:28;;;;;;;7.55;3.83;;;;;;;12.55;72.24;99753.72;5093384;28;20108;-78
2022/09/07 03:49:53;;;;;;;5.55;3.90;;;;;;;12.46;72.08;99742.84;5092864;28;20102;-78
2022/09/07 03:52:18;;;;;;;6.63;3.45;;;;;;;12.49;72.25;99758.34;5093059;28;20020;-78
2022/09/07 03:54:44;;;;;;;8.13;4.15;;;;;;;12.51;72.03;99760.03;5092806;28;20031;-78
2022/09/07 03:57:09;;;;;;;5.15;3.90;;;;;;;12.43;71.77;99750.84;5092965;28;20509;-78
2022/09/07 03:59:35;;;;;;;6.30;4.30;;;;;;;12.46;71.75;99765.50;5092924;28;20056;-77
2022/09/07 04:02:00;;;;;;;5.78;3.22;;;;;;;12.35;71.87;99758.25;5093002;28;20099;-77
2022/09/07 04:04:26;;;;;;;7.00;3.97;;;;;;;12.33;71.86;99767.91;5092742;28;20044;-77
2022/09/07 04:06:51;;;;;;;5.20;3.50;;;;;;;12.37;72.16;99759.00;5092720;28;20051;-77
2022/09/07 04:09:17;;;;;;;5.20;3.53;;;;;;;12.27;71.75;99739.53;5092887;28;20035;-77
2022/09/07 04:11:42;;;;;;;4.93;3.25;;;;;;;12.22;71.79;99744.16;5091870;28;20640;-78
2022/09/07 04:14:09;;;;;;;7.25;3.63;;;;;;;12.25;71.77;99746.56;5092567;28;20019;-77
2022/09/07 04:16:34;;;;;;;13.23;4.30;;;;;;;12.17;71.68;99749.56;5092829;28;20027;-77
2022/09/07 04:19:00;;;;;;;6.68;3.55;;;;;;;12.16;72.17;99744.44;5092426;28;20457;-77
2022/09/07 04:21:30;;;;;;;4.53;3.25;;;;;;;12.11;72.09;99749.06;5092653;28;20463;-77
2022/09/07 04:23:55;;;;;;;6.63;3.50;;;;;;;12.13;72.26;99752.44;5092557;28;20031;-78
2022/09/07 04:26:34;;;;;;;9.13;4.03;;;;;;;12.10;72.11;99750.84;5092423;28;20020;-77
2022/09/07 04:29:01;;;;;;;5.75;3.33;;;;;;;12.12;72.30;99761.19;5092439;28;20098;-77
2022/09/07 04:31:27;;;;;;;6.35;3.55;;;;;;;12.12;72.15;99753.34;5092591;28;20023;-77
2022/09/07 04:33:53;;;;;;;6.95;3.58;;;;;;;12.12;72.07;99762.03;5092277;28;20410;-77
2022/09/07 04:36:19;;;;;;;6.80;3.83;;;;;;;12.06;72.24;99762.34;5092636;28;20024;-77
2022/09/07 04:38:45;;;;;;;4.95;3.13;;;;;;;12.00;72.45;99739.16;5091950;28;20432;-77
2022/09/07 04:41:15;;;;;;;7.35;3.83;;;;;;;12.10;71.77;99750.00;5092207;28;20103;-78
2022/09/07 04:43:42;;;;;;;7.18;3.65;;;;;;;12.09;71.89;99745.66;5092216;28;20091;-77
2022/09/07 04:46:20;;;;;;;5.72;4.00;;;;;;;12.17;71.72;99753.97;5092201;28;20402;-77
2022/09/07 04:48:50;;;;;;;5.90;3.63;;;;;;;12.17;71.78;99743.50;5091967;28;20024;-77
2022/09/07 04:51:16;;;;;;;4.63;3.43;;;;;;;12.18;71.92;99753.06;5092229;28;20016;-77
2022/09/07 04:53:41;;;;;;;4.32;3.28;;;;;;;12.18;71.94;99740.00;5092040;28;20315;-77
2022/09/07 04:56:07;;;;;;;7.53;4.05;;;;;;;12.11;71.25;99736.00;5091686;28;20039;-78
2022/09/07 04:58:32;;;;;;;8.43;4.15;;;;;;;12.17;71.71;99753.97;5092151;28;20020;-77
2022/09/07 05:01:02;;;;;;;6.00;3.40;;;;;;;12.16;71.53;99739.22;5091975;28;20488;-78
2022/09/07 05:03:29;;;;;;;6.88;4.00;;;;;;;12.21;71.24;99742.44;5092154;28;20035;-78
2022/09/07 05:05:54;;;;;;;5.38;3.45;;;;;;;12.24;71.39;99740.50;5091704;28;20032;-77
2022/09/07 05:08:19;;;;;;;7.78;3.83;;;;;;;12.30;71.27;99743.72;5091883;28;20027;-77
2022/09/07 05:10:52;;;;;;;5.25;3.58;;;;;;;12.47;71.11;99754.13;5092304;28;20353;-78
2022/09/07 05:13:18;;;;;;;6.90;4.28;;;;;;;12.57;70.85;99744.06;5091961;28;20036;-77
2022/09/07 05:15:43;;;;;;;5.55;3.40;;;;;;;12.65;69.97;99741.88;5092041;28;20028;-78
2022/09/07 05:18:08;;;;;;;7.10;3.88;;;;;;;12.74;70.14;99742.22;5091803;28;20016;-78
2022/09/07 05:20:34;;;;;;;6.18;3.40;;;;;;;12.95;69.88;99755.06;5091822;28;20516;-78
2022/09/07 05:22:59;;;;;;;4.78;3.47;;;;;;;12.96;68.99;99747.13;5094874;28;20466;-78
2022/09/07 05:25:27;;;;;;;5.05;3.40;;;;;;;13.22;69.12;99752.66;5096438;28;20476;-77
2022/09/07 05:27:52;;;;;;;7.78;3.58;;;;;;;13.67;67.76;99757.09;5095710;28;20021;-77
2022/09/07 05:30:18;;;;;;;4.63;3.28;;;;;;;13.80;66.97;99756.41;5096001;28;20031;-77
2022/09/07 05:32:44;;;;;;;7.25;4.15;;;;;;;13.75;67.00;99756.66;5095781;28;20020;-77
2022/09/07 05:35:11;;;;;;;6.55;3.75;;;;;;;13.83;66.89;99757.06;5095620;28;20054;-77
2022/09/07 05:37:36;;;;;;;7.38;3.53;;;;;;;13.64;66.76;99740.72;5095623;28;20021;-77
2022/09/07 05:40:03;;;;;;;7.63;3.63;;;;;;;13.84;66.94;99750.06;5095500;28;20024;-77
2022/09/07 05:42:29;;;;;;;7.70;4.15;;;;;;;13.87;66.39;99750.72;5095755;28;20024;-77
2022/09/07 05:44:54;;;;;;;7.85;4.10;;;;;;;13.94;66.54;99754.66;5095448;28;20028;-77
2022/09/07 05:47:19;;;;;;;6.43;3.83;;;;;;;14.04;66.70;99754.97;5095585;28;20023;-77
2022/09/07 05:49:45;;;;;;;7.28;4.18;;;;;;;14.20;66.13;99758.38;5095504;28;20093;-77
2022/09/07 05:52:10;;;;;;;5.53;3.60;;;;;;;14.20;65.92;99750.50;5095181;28;20012;-77
2022/09/07 05:54:35;;;;;;;6.88;3.97;;;;;;;14.23;65.69;99758.16;5095490;28;20453;-77
2022/09/07 05:57:02;;;;;;;5.75;3.97;;;;;;;14.52;65.80;99754.75;5094913;28;20015;-77
2022/09/07 05:59:27;;;;;;;8.70;3.80;;;;;;;15.02;65.06;99754.22;5095198;28;20031;-77
2022/09/07 06:01:53;;;;;;;5.97;3.75;;;;;;;15.08;64.54;99766.09;5094973;28;20365;-77
2022/09/07 06:04:18;;;;;;;6.38;3.83;;;;;;;15.34;64.02;99759.22;5095187;28;20131;-77
2022/09/07 06:06:43;;;;;;;8.95;4.00;;;;;;;15.46;63.41;99756.63;5095111;28;20489;-77
2022/09/07 06:09:11;;;;;;;7.78;4.03;;;;;;;15.88;62.85;99760.00;5095022;28;20147;-77
2022/09/07 06:11:37;;;;;;;7.55;4.40;;;;;;;16.34;61.41;99753.44;5095101;28;20024;-77
2022/09/07 06:14:02;;;;;;;6.30;3.70;;;;;;;16.21;61.11;99759.53;5095122;28;20030;-77
2022/09/07 06:16:28;;;;;;;10.48;3.78;;;;;;;16.46;61.26;99761.31;5094883;28;20183;-77
2022/09/07 06:18:53;;;;;;;5.80;3.70;;;;;;;16.44;61.05;99767.63;5094701;28;20055;-77
2022/09/07 06:21:21;;;;;;;11.43;4.07;;;;;;;16.21;60.89;99753.44;5094789;28;20095;-77
2022/09/07 06:23:48;;;;;;;9.40;4.25;;;;;;;16.02;62.09;99756.47;5094917;28;20453;-78
2022/09/07 06:26:15;;;;;;;6.53;3.97;;;;;;;15.84;62.59;99731.44;5094804;28;20027;-77
2022/09/07 06:28:45;;;;;;;6.40;4.05;;;;;;;15.49;63.43;99747.69;5094943;28;20027;-77
2022/09/07 06:31:12;;;;;;;;;;;;;;;15.35;64.21;99755.66;5095157;28;20085;-77
2022/09/07 06:33:39;;;;;;;10.93;4.95;;;;;;;15.38;64.51;99742.31;5093899;28;20427;-77
2022/09/07 06:36:19;;;;;;;8.63;3.97;;;;;;;15.92;63.60;99752.78;5094359;28;20100;-77
2022/09/07 06:38:45;;;;;;;12.27;4.75;;;;;;;16.48;62.72;99752.50;5094665;28;20027;-77
2022/09/07 06:41:21;;;;;;;9.43;4.40;;;;;;;16.84;61.85;99749.09;5094265;28;20036;-78
2022/09/07 06:43:47;;;;;;;7.43;4.32;;;;;;;17.24;60.05;99743.63;5094553;28;20074;-77
2022/09/07 06:46:12;;;;;;;6.82;4.35;;;;;;;17.85;59.44;99761.00;5094185;28;20477;-78
2022/09/07 06:48:38;;;;;;;8.20;4.45;;;;;;;18.19;57.42;99753.19;5094325;28;20020;-77
2022/09/07 06:51:07;;;;;;;6.03;3.90;;;;;;;18.23;58.44;99746.72;5094056;28;20020;-77
2022/09/07 06:53:34;;;;;;;8.80;3.85;;;;;;;18.55;57.97;99753.94;5107135;28;20360;-78
2022/09/07 06:56:03;;;;;;;7.65;3.90;;;;;;;19.30;56.52;99759.41;5114329;28;20394;-78
2022/09/07 06:58:28;;;;;;;6.57;3.75;;;;;;;19.35;55.25;99737.91;5114509;28;20020;-78
2022/09/07 07:00:54;;;;;;;8.57;4.40;;;;;;;19.83;54.25;99751.53;5114232;28;20020;-78
2022/09/07 07:03:20;;;;;;;5.93;4.20;;;;;;;20.14;53.14;99741.00;5113372;28;20107;-78
2022/09/07 07:05:56;;;;;;;7.28;4.20;;;;;;;20.63;52.38;99739.47;5114156;28;20114;-78
2022/09/07 07:08:23;;;;;;;11.68;4.60;;;;;;;20.85;51.47;99727.84;5114400;28;20091;-78
2022/09/07 07:10:50;;;;;;;8.90;3.83;;;;;;;22.27;50.29;99729.97;5114647;28;20024;-78
2022/09/07 07:13:15;;;;;;;6.28;4.20;;;;;;;24.59;45.75;99722.09;5114040;28;20016;-78
2022/09/07 07:15:41;;;;;;;5.93;4.20;;;;;;;26.18;42.79;99737.03;5114354;28;20408;-78
2022/09/07 07:18:07;;;;;;;10.32;4.00;;;;;;;27.81;39.95;99730.91;5114156;28;20360;-78
2022/09/07 07:20:37;;;;;;;10.02;4.35;;;;;;;30.15;38.49;99730.00;5114155;28;20051;-78
2022/09/07 07:23:03;;;;;;;8.68;4.03;;;;;;;31.10;35.69;99741.84;5113909;28;20027;-79
2022/09/07 07:25:28;;;;;;;7.43;4.05;;;;;;;32.65;34.53;99740.66;5114230;28;20028;-79
2022/09/07 07:27:53;;;;;;;6.43;3.92;;;;;;;33.12;33.08;99735.91;5113913;28;20019;-79
2022/09/07 07:30:19;;;;;;;8.80;4.40;;;;;;;32.81;33.61;99740.19;5113818;28;20372;-79
2022/09/07 07:32:46;;;;;;;8.45;4.18;;;;;;;34.20;31.62;99733.88;5113939;28;20026;-79
2022/09/07 07:35:13;;;;;;;6.10;3.75;;;;;;;35.28;31.95;99740.53;5113475;28;20452;-79
2022/09/07 07:37:39;;;;;;;5.18;4.05;;;;;;;35.15;31.06;99728.03;5113852;28;20053;-79
2022/09/07 07:40:07;;;;;;;7.68;4.20;;;;;;;36.82;29.60;99734.13;5113640;28;20024;-79
2022/09/07 07:42:34;;;;;;;7.65;4.20;;;;;;;36.86;29.70;99719.00;5113719;28;20102;-79
2022/09/07 07:45:00;;;;;;;6.85;4.40;;;;;;;35.96;30.35;99715.72;5112687;28;20023;-79
2022/09/07 07:47:25;;;;;;;11.77;4.50;;;;;;;36.97;29.63;99718.16;5113688;28;20072;-79
2022/09/07 07:49:51;;;;;;;7.90;4.38;;;;;;;36.13;29.99;99723.16;5113571;28;20024;-79
2022/09/07 07:52:17;;;;;;;7.18;4.65;;;;;;;36.30;29.98;99729.50;5113379;28;20024;-79
2022/09/07 07:54:42;;;;;;;6.50;4.25;;;;;;;37.85;28.82;99737.63;5109793;28;20031;-79
2022/09/07 07:57:08;;;;;;;8.10;4.40;;;;;;;38.15;28.24;99742.75;5112858;28;20023;-79
2022/09/07 07:59:33;;;;;;;10.77;4.80;;;;;;;36.86;29.24;99746.13;5113236;28;20471;-79
2022/09/07 08:02:03;;;;;;;9.40;4.78;;;;;;;35.57;29.90;99732.63;5113173;28;20380;-79
2022/09/07 08:04:30;;;;;;;9.00;4.88;;;;;;;32.39;32.83;99737.00;5113167;28;20120;-79
2022/09/07 08:06:56;;;;;;;8.05;4.90;;;;;;;29.99;36.06;99737.28;5113273;28;20433;-79
2022/09/07 08:09:21;;;;;;;11.05;4.72;;;;;;;27.61;38.77;99730.53;5112910;28;20047;-77
2022/09/07 08:11:47;;;;;;;10.55;5.03;;;;;;;26.62;40.79;99715.22;5113020;28;20027;-78
2022/09/07 08:14:12;;;;;;;7.43;4.50;;;;;;;25.93;42.48;99733.56;5106971;28;20016;-79
2022/09/07 08:16:37;;;;;;;15.23;5.60;;;;;;;25.37;44.43;99730.69;5092494;28;20028;-77
2022/09/07 08:19:04;;;;;;;11.48;4.85;;;;;;;24.37;45.80;99726.13;5092107;28;20019;-77
2022/09/07 08:21:29;;;;;;;7.25;4.50;;;;;;;23.07;48.60;99715.25;5092534;28;20407;-77
2022/09/07 08:23:55;;;;;;;11.13;5.60;;;;;;;22.39;50.57;99732.31;5092508;28;20023;-77
2022/09/07 08:26:20;;;;;;;11.88;5.28;;;;;;;22.17;51.17;99730.84;5092026;28;20103;-77
2022/09/07 08:28:46;;;;;;;6.43;4.30;;;;;;;22.19;51.33;99721.91;5092482;28;20023;-77
2022/09/07 08:31:14;;;;;;;8.68;5.32;;;;;;;22.02;51.87;99734.91;5092194;28;20401;-77
2022/09/07 08:33:40;;;;;;;11.15;5.20;;;;;;;21.74;53.10;99728.66;5092439;28;20051;-78
2022/09/07 08:36:24;;;;;;;9.40;5.15;;;;;;;21.71;53.01;99728.13;5111117;27;20034;-76
2022/09/07 08:38:49;;;;;;;5.70;4.32;;;;;;;21.60;53.20;99729.91;5097138;27;20043;-77
2022/09/07 08:41:20;;;;;;;8.00;4.97;;;;;;;21.43;54.00;99738.56;5133116;27;20051;-77
2022/09/07 08:43:58;;;;;;;9.85;5.32;;;;;;;21.27;54.29;99727.63;5125010;27;20100;-77
2022/09/07 08:46:36;;;;;;;13.15;5.18;;;;;;;21.23;55.50;99728.88;5112296;28;20156;-77
2022/09/07 08:49:04;;;;;;;13.40;6.80;;;;;;;20.97;56.18;99724.09;5112230;28;20104;-77
2022/09/07 08:51:41;;;;;;;17.08;5.85;;;;;;;20.61;55.84;99715.81;5113884;27;20729;-77
2022/09/07 08:54:11;;;;;;;9.52;5.40;;;;;;;20.54;56.64;99714.66;5132938;27;20483;-77
2022/09/07 08:56:41;;;;;;;9.57;5.80;;;;;;;20.46;57.61;99701.22;5132684;27;20027;-77
2022/09/07 08:59:29;;;;;;;6.53;5.10;;;;;;;20.59;57.48;99699.19;5132838;27;20031;-77
2022/09/07 09:01:54;;;;;;;10.15;5.28;;;;;;;20.47;58.02;99689.66;5132981;27;20054;-77
2022/09/07 09:04:25;;;;;;;12.10;5.43;;;;;;;20.51;57.33;99695.56;5132676;27;20806;-77
2022/09/07 09:07:15;;;;;;;9.95;5.45;;;;;;;20.37;58.22;99696.72;5133004;27;20075;-79
2022/09/07 09:09:49;;;;;;;8.95;4.68;;;;;;;20.21;58.29;99685.78;5121928;27;20027;-79
2022/09/07 09:12:24;;;;;;;15.77;5.40;;;;;;;20.29;59.00;99691.25;5111863;28;20536;-79
2022/09/07 09:15:20;;;;;;;10.30;5.90;;;;;;;20.16;57.82;99691.47;5112185;28;20498;-79
2022/09/07 09:17:48;;;;;;;9.45;5.50;;;;;;;20.05;58.64;99692.38;5112314;28;20031;-79
2022/09/07 09:20:30;;;;;;;10.98;5.50;;;;;;;20.10;58.33;99694.63;5111819;28;20487;-79
2022/09/07 09:23:13;;;;;;;10.80;5.75;;;;;;;20.09;59.33;99693.81;5112367;28;20034;-79
2022/09/07 09:25:58;;;;;;;6.90;4.85;;;;;;;20.10;59.79;99697.28;5112266;28;20098;-79
2022/09/07 09:28:24;;;;;;;9.00;4.93;;;;;;;20.05;59.84;99681.81;5106693;28;20035;-79
2022/09/07 09:30:50;;;;;;;7.63;5.32;;;;;;;20.19;60.47;99692.06;5091792;28;20024;-79
2022/09/07 09:33:21;;;;;;;10.90;5.28;;;;;;;20.33;59.22;99700.63;5091509;28;20024;-79
2022/09/07 09:35:48;;;;;;;8.57;5.60;;;;;;;20.24;59.42;99688.19;5091861;28;20028;-79
2022/09/07 09:38:32;;;;;;;6.60;5.18;;;;;;;20.32;59.10;99693.66;5091565;28;20396;-79
2022/09/07 09:41:12;;;;;;;7.10;4.75;;;;;;;20.36;59.24;99660.69;5091676;28;20349;-76
2022/09/07 09:43:45;;;;;;;9.57;4.70;;;;;;;20.56;60.07;99667.75;5091854;28;20048;-76
2022/09/07 09:46:27;;;;;;;8.45;5.68;;;;;;;20.62;59.08;99671.66;5091467;28;20411;-76
2022/09/07 09:49:02;;;;;;;8.35;5.80;;;;;;;20.44;58.76;99661.69;5091681;28;20047;-76
2022/09/07 09:51:31;;;;;;;11.18;5.80;;;;;;;20.41;58.53;99664.59;5091335;28;20110;-76
2022/09/07 09:54:04;;;;;;;9.93;5.00;;;;;;;20.36;59.56;99661.50;5091492;28;20051;-76
2022/09/07 09:56:42;;;;;;;7.97;4.93;;;;;;;20.48;59.28;99664.03;5091539;28;20024;-78
2022/09/07 09:59:18;;;;;;;12.80;5.13;;;;;;;20.44;58.66;99655.56;5091302;28;20020;-77
2022/09/07 10:01:45;;;;;;;7.20;4.80;;;;;;;20.58;59.13;99662.31;5091398;28;20028;-77
2022/09/07 10:04:26;;;;;;;7.93;5.50;;;;;;;20.62;58.68;99656.59;5101173;28;20036;-77
2022/09/07 10:07:06;;;;;;;7.10;4.72;;;;;;;20.70;58.94;99670.97;5111960;28;20462;-77
2022/09/07 10:09:40;;;;;;;11.53;4.97;;;;;;;20.83;57.46;99655.69;5114285;28;20081;-77
2022/09/07 10:12:21;;;;;;;10.50;5.80;;;;;;;20.94;57.43;99663.47;5114132;28;20375;-77
2022/09/07 10:14:47;;;;;;;8.07;5.20;;;;;;;20.92;57.56;99657.50;5115600;28;20080;-77
2022/09/07 10:17:22;;;;;;;11.50;5.55;;;;;;;20.95;57.33;99651.09;5115300;28;20027;-77
2022/09/07 10:19:48;;;;;;;11.18;5.45;;;;;;;21.07;57.15;99657.91;5115424;28;20463;-77
2022/09/07 10:22:34;;;;;;;8.88;4.53;;;;;;;21.19;57.08;99670.06;5115101;28;20141;-77
2022/09/07 10:25:01;;;;;;;8.20;5.18;;;;;;;21.20;57.14;99660.31;5115175;28;20060;-77
2022/09/07 10:27:37;;;;;;;9.85;5.88;;;;;;;21.28;56.97;99669.25;5115144;28;20486;-77
2022/09/07 10:30:13;;;;;;;8.93;5.18;;;;;;;21.17;57.08;99659.59;5115104;27;20495;-77
2022/09/07 10:32:55;;;;;;;7.70;5.05;;;;;;;21.19;57.09;99654.16;5115066;28;20082;-77
2022/09/07 10:35:33;;;;;;;14.25;5.50;;;;;;;21.22;56.93;99664.47;5114708;28;20460;-77
2022/09/07 10:38:24;;;;;;;7.47;5.50;;;;;;;21.23;57.08;99666.16;5115138;28;20061;-77
2022/09/07 10:41:04;;;;;;;8.18;5.68;;;;;;;21.25;56.88;99663.38;5114952;28;20012;-77
2022/09/07 10:43:43;;;;;;;9.43;5.45;;;;;;;21.28;56.90;99668.38;5114572;28;20107;-77
2022/09/07 10:46:30;;;;;;;8.48;5.15;;;;;;;21.34;57.52;99658.09;5114795;28;20099;-77
2022/09/07 10:49:12;;;;;;;11.40;5.22;;;;;;;21.40;57.53;99657.53;5113265;27;20065;-77
2022/09/07 10:51:56;;;;;;;11.95;5.28;;;;;;;21.63;57.60;99658.06;5124155;27;20019;-77
2022/09/07 10:54:40;;;;;;;6.97;4.72;;;;;;;21.76;56.91;99663.06;5123529;27;20024;-77
2022/09/07 10:57:39;;;;;;;7.75;5.10;;;;;;;21.79;56.82;99652.19;5114510;28;20594;-77
2022/09/07 11:00:10;;;;;;;6.88;4.95;;;;;;;21.83;57.14;99645.63;5094001;28;20107;-77
2022/09/07 11:02:38;;;;;;;9.35;5.80;;;;;;;21.82;56.04;99653.69;5094022;28;20046;-77
2022/09/07 11:05:25;;;;;;;8.35;5.50;;;;;;;21.86;56.85;99649.78;5093939;28;20051;-77
2022/09/07 11:08:32;;;;;;;7.88;5.68;;;;;;;21.91;56.38;99648.41;5128005;27;20019;-77
2022/09/07 11:11:29;;;;;;;5.47;4.50;;;;;;;21.77;56.01;99632.94;5091389;28;20040;-77
2022/09/07 11:14:00;;;;;;;10.90;5.15;;;;;;;21.76;57.14;99628.63;5091554;28;20212;-77
2022/09/07 11:16:32;;;;;;;12.85;5.40;;;;;;;21.86;57.31;99625.94;5091055;28;20114;-77
2022/09/07 11:19:12;;;;;;;9.25;5.68;;;;;;;21.91;56.55;99632.50;5091349;28;20035;-77
2022/09/07 11:22:01;;;;;;;6.55;4.68;;;;;;;21.89;56.11;99631.78;5091252;28;20040;-77
2022/09/07 11:24:36;;;;;;;6.33;4.97;;;;;;;21.96;57.22;99642.66;4979576;28;20042;-76
2022/09/07 11:27:28;;;;;;;12.75;4.90;;;;;;;22.04;57.07;99640.13;4972245;28;20420;-77
2022/09/07 11:30:04;;;;;;;9.65;5.68;;;;;;;22.17;57.49;99639.81;4972272;28;20101;-77
2022/09/07 11:32:36;;;;;;;11.07;5.07;;;;;;;22.21;56.72;99638.56;4972011;28;20027;-77
2022/09/07 11:35:23;;;;;;;6.18;4.93;;;;;;;22.20;56.94;99628.06;4972040;28;20507;-77
2022/09/07 11:37:58;;;;;;;9.68;4.88;;;;;;;22.17;57.09;99615.94;4939890;28;20531;-77
2022/09/07 11:40:30;;;;;;;6.93;5.13;;;;;;;22.22;57.66;99613.69;4971673;28;20038;-77
2022/09/07 11:43:14;;;;;;;5.97;4.53;;;;;;;22.34;57.54;99619.63;4971950;28;20046;-77
2022/09/07 11:45:45;;;;;;;8.38;5.10;;;;;;;22.28;57.17;99615.75;4971988;28;20074;-77
2022/09/07 11:48:39;;;;;;;8.63;4.88;;;;;;;22.28;57.00;99605.13;5014438;28;20360;-77